sensor_id;sensor_type;location;lat;lon;timestamp;P1;durP1;ratioP1;P2;durP2;ratioP2
9473;SDS011;8865;47.636;7.692;2022-08-23T00:01:30;4.53;;;3.07;;
9473;SDS011;8865;47.636;7.692;2022-08-23T00:04:03;3.93;;;3.30;;
9473;SDS011;8865;47.636;7.692;2022-08-23T00:06:40;4.37;;;3.40;;
9473;SDS011;8865;47.636;7.692;2022-08-23T00:09:07;4.67;;;3.50;;
9473;SDS011;8865;47.636;7.692;2022-08-23T00:11:38;6.57;;;3.17;;
9473;SDS011;8865;47.636;7.692;2022-08-23T00:14:31;3.53;;;3.10;;
9473;SDS011;8865;47.636;7.692;2022-08-23T00:16:58;4.53;;;3.57;;
9473;SDS011;8865;47.636;7.692;2022-08-23T00:19:25;3.93;;;3.03;;
9473;SDS011;8865;47.636;7.692;2022-08-23T00:21:52;6.03;;;3.37;;
9473;SDS011;8865;47.636;7.692;2022-08-23T00:24:19;7.07;;;3.50;;
9473;SDS011;8865;47.636;7.692;2022-08-23T00:27:32;3.70;;;3.30;;
9473;SDS011;8865;47.636;7.692;2022-08-23T00:29:43;4.80;;;3.57;;
9473;SDS011;8865;47.636;7.692;2022-08-23T00:32:24;4.83;;;3.63;;
9473;SDS011;8865;47.636;7.692;2022-08-23T00:34:53;4.40;;;3.20;;
9473;SDS011;8865;47.636;7.692;2022-08-23T00:37:20;4.37;;;3.30;;
9473;SDS011;8865;47.636;7.692;2022-08-23T00:39:47;4.30;;;3.30;;
9473;SDS011;8865;47.636;7.692;2022-08-23T00:45:06;5.27;;;3.43;;
9473;SDS011;8865;47.636;7.692;2022-08-23T00:47:52;4.77;;;3.60;;
9473;SDS011;8865;47.636;7.692;2022-08-23T00:53:05;3.70;;;3.23;;
9473;SDS011;8865;47.636;7.692;2022-08-23T00:55:38;7.13;;;3.80;;
9473;SDS011;8865;47.636;7.692;2022-08-23T00:58:07;5.07;;;3.67;;
9473;SDS011;8865;47.636;7.692;2022-08-23T01:00:33;7.47;;;3.90;;
9473;SDS011;8865;47.636;7.692;2022-08-23T01:03:01;5.50;;;3.33;;
9473;SDS011;8865;47.636;7.692;2022-08-23T01:05:32;6.33;;;3.40;;
9473;SDS011;8865;47.636;7.692;2022-08-23T01:08:06;4.00;;;3.60;;
9473;SDS011;8865;47.636;7.692;2022-08-23T01:10:35;5.07;;;3.70;;
9473;SDS011;8865;47.636;7.692;2022-08-23T01:13:14;6.30;;;3.43;;
9473;SDS011;8865;47.636;7.692;2022-08-23T01:15:49;7.70;;;3.27;;
9473;SDS011;8865;47.636;7.692;2022-08-23T01:18:20;5.50;;;3.87;;
9473;SDS011;8865;47.636;7.692;2022-08-23T01:20:53;4.87;;;3.50;;
9473;SDS011;8865;47.636;7.692;2022-08-23T01:25:59;4.23;;;3.80;;
9473;SDS011;8865;47.636;7.692;2022-08-23T01:28:26;4.60;;;3.27;;
9473;SDS011;8865;47.636;7.692;2022-08-23T01:30:52;4.00;;;3.60;;
9473;SDS011;8865;47.636;7.692;2022-08-23T01:33:18;4.83;;;3.70;;
9473;SDS011;8865;47.636;7.692;2022-08-23T01:35:46;5.80;;;3.67;;
9473;SDS011;8865;47.636;7.692;2022-08-23T01:38:15;4.30;;;3.70;;
9473;SDS011;8865;47.636;7.692;2022-08-23T01:40:42;4.60;;;3.77;;
9473;SDS011;8865;47.636;7.692;2022-08-23T01:43:10;4.00;;;3.60;;
9473;SDS011;8865;47.636;7.692;2022-08-23T01:45:38;4.83;;;3.10;;
9473;SDS011;8865;47.636;7.692;2022-08-23T01:48:04;5.00;;;3.20;;
9473;SDS011;8865;47.636;7.692;2022-08-23T01:50:31;5.37;;;3.77;;
9473;SDS011;8865;47.636;7.692;2022-08-23T01:52:57;4.77;;;3.60;;
9473;SDS011;8865;47.636;7.692;2022-08-23T01:55:24;7.57;;;3.40;;
9473;SDS011;8865;47.636;7.692;2022-08-23T01:57:54;5.27;;;4.27;;
9473;SDS011;8865;47.636;7.692;2022-08-23T02:00:24;5.37;;;3.67;;
9473;SDS011;8865;47.636;7.692;2022-08-23T02:02:55;5.47;;;3.63;;
9473;SDS011;8865;47.636;7.692;2022-08-23T02:05:23;6.37;;;3.77;;
9473;SDS011;8865;47.636;7.692;2022-08-23T02:07:50;4.00;;;3.37;;
9473;SDS011;8865;47.636;7.692;2022-08-23T02:10:16;5.07;;;3.90;;
9473;SDS011;8865;47.636;7.692;2022-08-23T02:12:43;4.60;;;3.97;;
9473;SDS011;8865;47.636;7.692;2022-08-23T02:15:09;5.67;;;3.80;;
9473;SDS011;8865;47.636;7.692;2022-08-23T02:17:35;5.10;;;3.97;;
9473;SDS011;8865;47.636;7.692;2022-08-23T02:20:02;4.70;;;3.60;;
9473;SDS011;8865;47.636;7.692;2022-08-23T02:22:30;4.87;;;3.90;;
9473;SDS011;8865;47.636;7.692;2022-08-23T02:24:58;3.97;;;3.57;;
9473;SDS011;8865;47.636;7.692;2022-08-23T02:27:24;4.07;;;3.63;;
9473;SDS011;8865;47.636;7.692;2022-08-23T02:29:50;4.10;;;3.53;;
9473;SDS011;8865;47.636;7.692;2022-08-23T02:32:16;5.17;;;3.40;;
9473;SDS011;8865;47.636;7.692;2022-08-23T02:34:43;3.93;;;3.53;;
9473;SDS011;8865;47.636;7.692;2022-08-23T02:37:11;5.43;;;3.80;;
9473;SDS011;8865;47.636;7.692;2022-08-23T02:39:38;5.13;;;3.87;;
9473;SDS011;8865;47.636;7.692;2022-08-23T02:42:05;6.03;;;3.80;;
9473;SDS011;8865;47.636;7.692;2022-08-23T02:44:32;3.80;;;3.50;;
9473;SDS011;8865;47.636;7.692;2022-08-23T02:47:00;7.73;;;3.90;;
9473;SDS011;8865;47.636;7.692;2022-08-23T02:49:27;5.27;;;4.10;;
9473;SDS011;8865;47.636;7.692;2022-08-23T02:51:54;5.00;;;3.87;;
9473;SDS011;8865;47.636;7.692;2022-08-23T02:54:21;4.83;;;3.80;;
9473;SDS011;8865;47.636;7.692;2022-08-23T02:56:47;6.27;;;3.80;;
9473;SDS011;8865;47.636;7.692;2022-08-23T02:59:14;6.07;;;4.20;;
9473;SDS011;8865;47.636;7.692;2022-08-23T03:01:39;8.47;;;3.97;;
9473;SDS011;8865;47.636;7.692;2022-08-23T03:04:06;5.17;;;3.70;;
9473;SDS011;8865;47.636;7.692;2022-08-23T03:06:33;5.47;;;3.80;;
9473;SDS011;8865;47.636;7.692;2022-08-23T03:09:00;5.00;;;4.00;;
9473;SDS011;8865;47.636;7.692;2022-08-23T03:11:27;4.93;;;4.30;;
9473;SDS011;8865;47.636;7.692;2022-08-23T03:13:53;4.10;;;3.70;;
9473;SDS011;8865;47.636;7.692;2022-08-23T03:16:21;4.83;;;4.00;;
9473;SDS011;8865;47.636;7.692;2022-08-23T03:18:48;4.90;;;3.90;;
9473;SDS011;8865;47.636;7.692;2022-08-23T03:21:15;6.60;;;4.33;;
9473;SDS011;8865;47.636;7.692;2022-08-23T03:23:42;4.70;;;4.00;;
9473;SDS011;8865;47.636;7.692;2022-08-23T03:26:10;4.80;;;4.37;;
9473;SDS011;8865;47.636;7.692;2022-08-23T03:28:37;6.00;;;4.57;;
9473;SDS011;8865;47.636;7.692;2022-08-23T03:31:05;5.73;;;4.20;;
9473;SDS011;8865;47.636;7.692;2022-08-23T03:33:33;6.23;;;4.23;;
9473;SDS011;8865;47.636;7.692;2022-08-23T03:36:00;7.33;;;4.30;;
9473;SDS011;8865;47.636;7.692;2022-08-23T03:38:28;4.50;;;3.77;;
9473;SDS011;8865;47.636;7.692;2022-08-23T03:40:54;5.27;;;4.13;;
9473;SDS011;8865;47.636;7.692;2022-08-23T03:43:20;7.30;;;4.27;;
9473;SDS011;8865;47.636;7.692;2022-08-23T03:45:46;4.00;;;3.53;;
9473;SDS011;8865;47.636;7.692;2022-08-23T03:48:12;8.17;;;4.57;;
9473;SDS011;8865;47.636;7.692;2022-08-23T03:50:38;5.23;;;4.13;;
9473;SDS011;8865;47.636;7.692;2022-08-23T03:53:05;5.10;;;4.20;;
9473;SDS011;8865;47.636;7.692;2022-08-23T03:55:31;4.97;;;4.10;;
9473;SDS011;8865;47.636;7.692;2022-08-23T03:57:57;5.03;;;4.03;;
9473;SDS011;8865;47.636;7.692;2022-08-23T04:00:23;5.70;;;4.10;;
9473;SDS011;8865;47.636;7.692;2022-08-23T04:02:49;5.37;;;4.30;;
9473;SDS011;8865;47.636;7.692;2022-08-23T04:05:15;5.10;;;4.60;;
9473;SDS011;8865;47.636;7.692;2022-08-23T04:07:41;6.17;;;4.40;;
9473;SDS011;8865;47.636;7.692;2022-08-23T04:10:07;7.37;;;4.80;;
9473;SDS011;8865;47.636;7.692;2022-08-23T04:12:34;5.63;;;4.20;;
9473;SDS011;8865;47.636;7.692;2022-08-23T04:15:00;6.00;;;4.63;;
9473;SDS011;8865;47.636;7.692;2022-08-23T04:17:27;6.07;;;4.10;;
9473;SDS011;8865;47.636;7.692;2022-08-23T04:19:54;7.73;;;4.20;;
9473;SDS011;8865;47.636;7.692;2022-08-23T04:22:20;7.83;;;3.93;;
9473;SDS011;8865;47.636;7.692;2022-08-23T04:24:46;5.63;;;4.37;;
9473;SDS011;8865;47.636;7.692;2022-08-23T04:27:13;6.63;;;4.67;;
9473;SDS011;8865;47.636;7.692;2022-08-23T04:29:40;4.83;;;4.33;;
9473;SDS011;8865;47.636;7.692;2022-08-23T04:32:18;4.53;;;4.13;;
9473;SDS011;8865;47.636;7.692;2022-08-23T04:34:44;6.53;;;4.40;;
9473;SDS011;8865;47.636;7.692;2022-08-23T04:37:12;5.80;;;4.23;;
9473;SDS011;8865;47.636;7.692;2022-08-23T04:39:38;4.60;;;4.20;;
9473;SDS011;8865;47.636;7.692;2022-08-23T04:42:23;5.70;;;4.93;;
9473;SDS011;8865;47.636;7.692;2022-08-23T04:44:49;7.10;;;4.00;;
9473;SDS011;8865;47.636;7.692;2022-08-23T04:47:16;6.90;;;4.50;;
9473;SDS011;8865;47.636;7.692;2022-08-23T04:49:42;9.20;;;5.07;;
9473;SDS011;8865;47.636;7.692;2022-08-23T04:52:08;7.47;;;5.23;;
9473;SDS011;8865;47.636;7.692;2022-08-23T04:54:34;6.40;;;4.10;;
9473;SDS011;8865;47.636;7.692;2022-08-23T04:57:01;7.87;;;4.40;;
9473;SDS011;8865;47.636;7.692;2022-08-23T04:59:27;6.33;;;4.80;;
9473;SDS011;8865;47.636;7.692;2022-08-23T05:01:53;7.33;;;4.80;;
9473;SDS011;8865;47.636;7.692;2022-08-23T05:04:19;5.53;;;4.90;;
9473;SDS011;8865;47.636;7.692;2022-08-23T05:06:45;7.30;;;5.03;;
9473;SDS011;8865;47.636;7.692;2022-08-23T05:09:11;11.97;;;5.03;;
9473;SDS011;8865;47.636;7.692;2022-08-23T05:11:38;7.57;;;4.90;;
9473;SDS011;8865;47.636;7.692;2022-08-23T05:14:04;8.70;;;5.40;;
9473;SDS011;8865;47.636;7.692;2022-08-23T05:16:30;8.90;;;5.10;;
9473;SDS011;8865;47.636;7.692;2022-08-23T05:18:56;8.97;;;5.23;;
9473;SDS011;8865;47.636;7.692;2022-08-23T05:21:22;6.47;;;5.00;;
9473;SDS011;8865;47.636;7.692;2022-08-23T05:23:50;7.40;;;4.73;;
9473;SDS011;8865;47.636;7.692;2022-08-23T05:26:16;7.07;;;4.63;;
9473;SDS011;8865;47.636;7.692;2022-08-23T05:28:45;7.50;;;4.77;;
9473;SDS011;8865;47.636;7.692;2022-08-23T05:31:14;7.70;;;5.10;;
9473;SDS011;8865;47.636;7.692;2022-08-23T05:33:43;5.87;;;5.17;;
9473;SDS011;8865;47.636;7.692;2022-08-23T05:36:10;7.47;;;5.10;;
9473;SDS011;8865;47.636;7.692;2022-08-23T05:38:37;9.63;;;5.20;;
9473;SDS011;8865;47.636;7.692;2022-08-23T05:41:04;9.23;;;5.20;;
9473;SDS011;8865;47.636;7.692;2022-08-23T05:43:31;7.57;;;6.40;;
9473;SDS011;8865;47.636;7.692;2022-08-23T05:46:02;6.20;;;4.87;;
9473;SDS011;8865;47.636;7.692;2022-08-23T05:48:35;6.17;;;4.60;;
9473;SDS011;8865;47.636;7.692;2022-08-23T05:53:37;5.43;;;4.50;;
9473;SDS011;8865;47.636;7.692;2022-08-23T05:56:18;7.30;;;4.80;;
9473;SDS011;8865;47.636;7.692;2022-08-23T05:58:46;9.33;;;4.83;;
9473;SDS011;8865;47.636;7.692;2022-08-23T06:01:14;7.20;;;5.00;;
9473;SDS011;8865;47.636;7.692;2022-08-23T06:03:41;6.03;;;4.70;;
9473;SDS011;8865;47.636;7.692;2022-08-23T06:06:07;8.07;;;4.93;;
9473;SDS011;8865;47.636;7.692;2022-08-23T06:08:34;6.07;;;4.80;;
9473;SDS011;8865;47.636;7.692;2022-08-23T06:11:03;5.10;;;4.47;;
9473;SDS011;8865;47.636;7.692;2022-08-23T06:13:38;6.53;;;4.63;;
9473;SDS011;8865;47.636;7.692;2022-08-23T06:16:06;8.23;;;4.60;;
9473;SDS011;8865;47.636;7.692;2022-08-23T06:18:33;7.67;;;4.90;;
9473;SDS011;8865;47.636;7.692;2022-08-23T06:21:06;6.40;;;5.03;;
9473;SDS011;8865;47.636;7.692;2022-08-23T06:23:35;9.57;;;4.73;;
9473;SDS011;8865;47.636;7.692;2022-08-23T06:26:11;5.70;;;4.60;;
9473;SDS011;8865;47.636;7.692;2022-08-23T06:28:40;7.93;;;4.87;;
9473;SDS011;8865;47.636;7.692;2022-08-23T06:31:07;6.03;;;4.60;;
9473;SDS011;8865;47.636;7.692;2022-08-23T06:33:35;9.97;;;4.40;;
9473;SDS011;8865;47.636;7.692;2022-08-23T06:36:03;7.00;;;4.40;;
9473;SDS011;8865;47.636;7.692;2022-08-23T06:38:31;9.83;;;4.73;;
9473;SDS011;8865;47.636;7.692;2022-08-23T06:40:59;5.83;;;4.17;;
9473;SDS011;8865;47.636;7.692;2022-08-23T06:43:30;6.27;;;4.33;;
9473;SDS011;8865;47.636;7.692;2022-08-23T06:46:07;6.47;;;4.33;;
9473;SDS011;8865;47.636;7.692;2022-08-23T06:48:34;6.53;;;4.53;;
9473;SDS011;8865;47.636;7.692;2022-08-23T06:51:00;6.63;;;4.13;;
9473;SDS011;8865;47.636;7.692;2022-08-23T06:53:26;5.80;;;4.00;;
9473;SDS011;8865;47.636;7.692;2022-08-23T06:55:52;6.50;;;4.37;;
9473;SDS011;8865;47.636;7.692;2022-08-23T06:58:18;5.67;;;4.10;;
9473;SDS011;8865;47.636;7.692;2022-08-23T07:00:44;5.07;;;3.80;;
9473;SDS011;8865;47.636;7.692;2022-08-23T07:03:10;6.03;;;4.17;;
9473;SDS011;8865;47.636;7.692;2022-08-23T07:05:36;4.77;;;3.87;;
9473;SDS011;8865;47.636;7.692;2022-08-23T07:08:02;8.03;;;4.50;;
9473;SDS011;8865;47.636;7.692;2022-08-23T07:10:28;4.63;;;4.23;;
9473;SDS011;8865;47.636;7.692;2022-08-23T07:12:54;9.40;;;4.77;;
9473;SDS011;8865;47.636;7.692;2022-08-23T07:15:20;6.40;;;4.00;;
9473;SDS011;8865;47.636;7.692;2022-08-23T07:17:46;4.67;;;4.20;;
9473;SDS011;8865;47.636;7.692;2022-08-23T07:20:12;6.40;;;3.60;;
9473;SDS011;8865;47.636;7.692;2022-08-23T07:22:38;4.10;;;3.70;;
9473;SDS011;8865;47.636;7.692;2022-08-23T07:25:05;3.50;;;3.20;;
9473;SDS011;8865;47.636;7.692;2022-08-23T07:27:31;3.87;;;3.50;;
9473;SDS011;8865;47.636;7.692;2022-08-23T07:29:57;4.00;;;3.60;;
9473;SDS011;8865;47.636;7.692;2022-08-23T07:32:23;5.17;;;3.57;;
9473;SDS011;8865;47.636;7.692;2022-08-23T07:34:49;3.93;;;3.53;;
9473;SDS011;8865;47.636;7.692;2022-08-23T07:37:15;4.00;;;3.33;;
9473;SDS011;8865;47.636;7.692;2022-08-23T07:39:42;3.60;;;3.17;;
9473;SDS011;8865;47.636;7.692;2022-08-23T07:42:08;4.50;;;3.50;;
9473;SDS011;8865;47.636;7.692;2022-08-23T07:44:34;4.60;;;3.43;;
9473;SDS011;8865;47.636;7.692;2022-08-23T07:47:00;3.80;;;3.17;;
9473;SDS011;8865;47.636;7.692;2022-08-23T07:49:26;5.90;;;3.57;;
9473;SDS011;8865;47.636;7.692;2022-08-23T07:51:52;5.03;;;3.50;;
9473;SDS011;8865;47.636;7.692;2022-08-23T07:54:20;3.80;;;3.13;;
9473;SDS011;8865;47.636;7.692;2022-08-23T07:56:47;5.37;;;3.43;;
9473;SDS011;8865;47.636;7.692;2022-08-23T07:59:13;4.60;;;3.33;;
9473;SDS011;8865;47.636;7.692;2022-08-23T08:01:40;3.50;;;3.20;;
9473;SDS011;8865;47.636;7.692;2022-08-23T08:04:10;3.50;;;3.20;;
9473;SDS011;8865;47.636;7.692;2022-08-23T08:06:44;3.87;;;3.20;;
9473;SDS011;8865;47.636;7.692;2022-08-23T08:09:12;6.60;;;3.50;;
9473;SDS011;8865;47.636;7.692;2022-08-23T08:11:41;3.40;;;3.10;;
9473;SDS011;8865;47.636;7.692;2022-08-23T08:14:09;3.57;;;3.00;;
9473;SDS011;8865;47.636;7.692;2022-08-23T08:16:45;4.70;;;3.50;;
9473;SDS011;8865;47.636;7.692;2022-08-23T08:19:14;4.20;;;3.20;;
9473;SDS011;8865;47.636;7.692;2022-08-23T08:21:42;4.17;;;3.10;;
9473;SDS011;8865;47.636;7.692;2022-08-23T08:24:11;5.03;;;3.00;;
9473;SDS011;8865;47.636;7.692;2022-08-23T08:26:40;4.10;;;3.33;;
9473;SDS011;8865;47.636;7.692;2022-08-23T08:29:06;5.73;;;3.20;;
9473;SDS011;8865;47.636;7.692;2022-08-23T08:31:35;4.57;;;3.17;;
9473;SDS011;8865;47.636;7.692;2022-08-23T08:34:02;4.53;;;3.00;;
9473;SDS011;8865;47.636;7.692;2022-08-23T08:38:58;4.40;;;3.00;;
9473;SDS011;8865;47.636;7.692;2022-08-23T08:46:57;4.57;;;2.80;;
9473;SDS011;8865;47.636;7.692;2022-08-23T08:49:35;4.07;;;3.13;;
9473;SDS011;8865;47.636;7.692;2022-08-23T08:54:42;6.67;;;3.03;;
9473;SDS011;8865;47.636;7.692;2022-08-23T08:57:12;3.27;;;2.77;;
9473;SDS011;8865;47.636;7.692;2022-08-23T09:02:25;3.07;;;2.63;;
9473;SDS011;8865;47.636;7.692;2022-08-23T09:04:56;4.30;;;3.10;;
9473;SDS011;8865;47.636;7.692;2022-08-23T09:10:25;3.67;;;2.70;;
9473;SDS011;8865;47.636;7.692;2022-08-23T09:13:17;3.50;;;2.80;;
9473;SDS011;8865;47.636;7.692;2022-08-23T09:16:29;3.40;;;2.70;;
9473;SDS011;8865;47.636;7.692;2022-08-23T09:19:05;3.40;;;2.80;;
9473;SDS011;8865;47.636;7.692;2022-08-23T09:21:32;3.07;;;2.77;;
9473;SDS011;8865;47.636;7.692;2022-08-23T09:24:06;4.70;;;2.60;;
9473;SDS011;8865;47.636;7.692;2022-08-23T09:26:32;3.30;;;2.80;;
9473;SDS011;8865;47.636;7.692;2022-08-23T09:29:02;3.40;;;2.77;;
9473;SDS011;8865;47.636;7.692;2022-08-23T09:31:43;3.10;;;2.80;;
9473;SDS011;8865;47.636;7.692;2022-08-23T09:34:15;3.37;;;2.90;;
9473;SDS011;8865;47.636;7.692;2022-08-23T09:37:08;2.77;;;2.57;;
9473;SDS011;8865;47.636;7.692;2022-08-23T09:39:40;5.37;;;2.83;;
9473;SDS011;8865;47.636;7.692;2022-08-23T09:42:25;4.40;;;2.58;;
9473;SDS011;8865;47.636;7.692;2022-08-23T09:44:52;2.88;;;2.20;;
9473;SDS011;8865;47.636;7.692;2022-08-23T09:47:18;4.43;;;2.60;;
9473;SDS011;8865;47.636;7.692;2022-08-23T09:49:45;2.80;;;2.47;;
9473;SDS011;8865;47.636;7.692;2022-08-23T09:52:26;2.30;;;2.10;;
9473;SDS011;8865;47.636;7.692;2022-08-23T09:55:10;2.97;;;2.50;;
9473;SDS011;8865;47.636;7.692;2022-08-23T09:57:51;3.92;;;2.20;;
9473;SDS011;8865;47.636;7.692;2022-08-23T10:02:43;2.42;;;2.10;;
9473;SDS011;8865;47.636;7.692;2022-08-23T10:05:18;2.33;;;2.03;;
9473;SDS011;8865;47.636;7.692;2022-08-23T10:07:56;2.50;;;2.03;;
9473;SDS011;8865;47.636;7.692;2022-08-23T10:13:29;2.05;;;1.83;;
9473;SDS011;8865;47.636;7.692;2022-08-23T10:16:05;4.30;;;1.83;;
9473;SDS011;8865;47.636;7.692;2022-08-23T10:18:59;2.03;;;1.83;;
9473;SDS011;8865;47.636;7.692;2022-08-23T10:26:38;2.35;;;1.83;;
9473;SDS011;8865;47.636;7.692;2022-08-23T10:35:35;1.88;;;1.73;;
9473;SDS011;8865;47.636;7.692;2022-08-23T10:47:27;2.28;;;1.58;;
9473;SDS011;8865;47.636;7.692;2022-08-23T10:49:48;1.80;;;1.50;;
9473;SDS011;8865;47.636;7.692;2022-08-23T10:53:06;1.92;;;1.60;;
9473;SDS011;8865;47.636;7.692;2022-08-23T10:55:36;2.47;;;1.40;;
9473;SDS011;8865;47.636;7.692;2022-08-23T10:58:42;2.45;;;1.40;;
9473;SDS011;8865;47.636;7.692;2022-08-23T11:01:24;2.38;;;1.70;;
9473;SDS011;8865;47.636;7.692;2022-08-23T11:04:06;2.10;;;1.45;;
9473;SDS011;8865;47.636;7.692;2022-08-23T11:06:59;1.80;;;1.70;;
9473;SDS011;8865;47.636;7.692;2022-08-23T11:09:50;2.85;;;1.50;;
9473;SDS011;8865;47.636;7.692;2022-08-23T11:12:27;2.22;;;1.60;;
9473;SDS011;8865;47.636;7.692;2022-08-23T11:15:00;1.80;;;1.70;;
9473;SDS011;8865;47.636;7.692;2022-08-23T11:25:49;1.98;;;1.60;;
9473;SDS011;8865;47.636;7.692;2022-08-23T11:36:27;1.83;;;1.73;;
9473;SDS011;8865;47.636;7.692;2022-08-23T11:38:59;2.65;;;1.70;;
9473;SDS011;8865;47.636;7.692;2022-08-23T11:41:33;3.35;;;1.70;;
9473;SDS011;8865;47.636;7.692;2022-08-23T11:44:34;4.32;;;1.80;;
9473;SDS011;8865;47.636;7.692;2022-08-23T11:47:07;1.67;;;1.58;;
9473;SDS011;8865;47.636;7.692;2022-08-23T11:49:49;3.35;;;1.70;;
9473;SDS011;8865;47.636;7.692;2022-08-23T11:52:44;2.42;;;1.70;;
9473;SDS011;8865;47.636;7.692;2022-08-23T11:55:24;3.38;;;1.70;;
9473;SDS011;8865;47.636;7.692;2022-08-23T12:01:10;3.38;;;2.00;;
9473;SDS011;8865;47.636;7.692;2022-08-23T12:06:37;3.33;;;1.80;;
9473;SDS011;8865;47.636;7.692;2022-08-23T12:09:10;4.07;;;1.90;;
9473;SDS011;8865;47.636;7.692;2022-08-23T12:14:54;3.25;;;2.03;;
9473;SDS011;8865;47.636;7.692;2022-08-23T12:20:08;3.47;;;1.70;;
9473;SDS011;8865;47.636;7.692;2022-08-23T12:25:33;3.45;;;1.83;;
9473;SDS011;8865;47.636;7.692;2022-08-23T12:28:20;2.03;;;1.77;;
9473;SDS011;8865;47.636;7.692;2022-08-23T12:31:06;3.58;;;1.98;;
9473;SDS011;8865;47.636;7.692;2022-08-23T12:37:05;2.00;;;1.80;;
9473;SDS011;8865;47.636;7.692;2022-08-23T12:39:58;3.55;;;1.70;;
9473;SDS011;8865;47.636;7.692;2022-08-23T12:42:37;2.45;;;1.30;;
9473;SDS011;8865;47.636;7.692;2022-08-23T12:45:20;2.83;;;1.88;;
9473;SDS011;8865;47.636;7.692;2022-08-23T12:48:06;1.95;;;1.70;;
9473;SDS011;8865;47.636;7.692;2022-08-23T12:51:00;2.42;;;1.70;;
9473;SDS011;8865;47.636;7.692;2022-08-23T12:53:37;3.10;;;1.65;;
9473;SDS011;8865;47.636;7.692;2022-08-23T12:56:25;1.92;;;1.70;;
9473;SDS011;8865;47.636;7.692;2022-08-23T12:58:54;1.52;;;1.42;;
9473;SDS011;8865;47.636;7.692;2022-08-23T13:01:24;2.55;;;1.70;;
9473;SDS011;8865;47.636;7.692;2022-08-23T13:03:58;2.55;;;1.80;;
9473;SDS011;8865;47.636;7.692;2022-08-23T13:06:32;3.05;;;1.60;;
9473;SDS011;8865;47.636;7.692;2022-08-23T13:09:06;2.47;;;1.50;;
9473;SDS011;8865;47.636;7.692;2022-08-23T13:11:40;3.45;;;1.60;;
9473;SDS011;8865;47.636;7.692;2022-08-23T13:17:15;3.72;;;1.42;;
9473;SDS011;8865;47.636;7.692;2022-08-23T13:22:32;2.40;;;1.60;;
9473;SDS011;8865;47.636;7.692;2022-08-23T13:37:54;1.42;;;1.33;;
9473;SDS011;8865;47.636;7.692;2022-08-23T13:40:28;2.35;;;1.45;;
9473;SDS011;8865;47.636;7.692;2022-08-23T13:43:05;1.98;;;1.30;;
9473;SDS011;8865;47.636;7.692;2022-08-23T13:45:35;2.25;;;1.40;;
9473;SDS011;8865;47.636;7.692;2022-08-23T13:48:20;1.63;;;1.30;;
9473;SDS011;8865;47.636;7.692;2022-08-23T13:53:50;2.67;;;1.33;;
9473;SDS011;8865;47.636;7.692;2022-08-23T13:56:17;2.33;;;1.35;;
9473;SDS011;8865;47.636;7.692;2022-08-23T13:58:50;2.80;;;1.40;;
9473;SDS011;8865;47.636;7.692;2022-08-23T14:01:19;4.85;;;1.52;;
9473;SDS011;8865;47.636;7.692;2022-08-23T14:03:45;2.78;;;1.30;;
9473;SDS011;8865;47.636;7.692;2022-08-23T14:06:11;1.75;;;1.20;;
9473;SDS011;8865;47.636;7.692;2022-08-23T14:08:37;2.13;;;1.42;;
9473;SDS011;8865;47.636;7.692;2022-08-23T14:11:03;1.60;;;1.30;;
9473;SDS011;8865;47.636;7.692;2022-08-23T14:13:29;1.58;;;1.30;;
9473;SDS011;8865;47.636;7.692;2022-08-23T14:16:04;1.33;;;1.20;;
9473;SDS011;8865;47.636;7.692;2022-08-23T14:18:32;3.40;;;1.83;;
9473;SDS011;8865;47.636;7.692;2022-08-23T14:20:59;3.90;;;1.70;;
9473;SDS011;8865;47.636;7.692;2022-08-23T14:23:25;1.50;;;1.27;;
9473;SDS011;8865;47.636;7.692;2022-08-23T14:25:52;2.42;;;1.60;;
9473;SDS011;8865;47.636;7.692;2022-08-23T14:28:21;1.88;;;1.40;;
9473;SDS011;8865;47.636;7.692;2022-08-23T14:30:51;4.30;;;1.85;;
9473;SDS011;8865;47.636;7.692;2022-08-23T14:33:17;2.40;;;1.38;;
9473;SDS011;8865;47.636;7.692;2022-08-23T14:35:44;3.50;;;1.67;;
9473;SDS011;8865;47.636;7.692;2022-08-23T14:38:10;2.28;;;1.70;;
9473;SDS011;8865;47.636;7.692;2022-08-23T14:40:38;1.17;;;1.08;;
9473;SDS011;8865;47.636;7.692;2022-08-23T14:43:05;3.20;;;1.73;;
9473;SDS011;8865;47.636;7.692;2022-08-23T14:45:31;1.88;;;1.67;;
9473;SDS011;8865;47.636;7.692;2022-08-23T14:47:57;2.28;;;1.65;;
9473;SDS011;8865;47.636;7.692;2022-08-23T14:50:23;2.35;;;1.65;;
9473;SDS011;8865;47.636;7.692;2022-08-23T14:52:49;3.42;;;1.60;;
9473;SDS011;8865;47.636;7.692;2022-08-23T14:55:15;2.20;;;1.73;;
9473;SDS011;8865;47.636;7.692;2022-08-23T14:57:41;2.30;;;1.60;;
9473;SDS011;8865;47.636;7.692;2022-08-23T15:00:07;3.40;;;1.70;;
9473;SDS011;8865;47.636;7.692;2022-08-23T15:02:40;4.28;;;1.55;;
9473;SDS011;8865;47.636;7.692;2022-08-23T15:05:09;2.72;;;1.77;;
9473;SDS011;8865;47.636;7.692;2022-08-23T15:07:36;2.10;;;1.90;;
9473;SDS011;8865;47.636;7.692;2022-08-23T15:10:03;2.03;;;1.80;;
9473;SDS011;8865;47.636;7.692;2022-08-23T15:12:29;2.08;;;1.80;;
9473;SDS011;8865;47.636;7.692;2022-08-23T15:14:55;3.22;;;1.92;;
9473;SDS011;8865;47.636;7.692;2022-08-23T15:17:22;2.45;;;1.52;;
9473;SDS011;8865;47.636;7.692;2022-08-23T15:22:33;2.67;;;1.52;;
9473;SDS011;8865;47.636;7.692;2022-08-23T15:25:04;4.40;;;2.00;;
9473;SDS011;8865;47.636;7.692;2022-08-23T15:27:39;3.92;;;1.70;;
9473;SDS011;8865;47.636;7.692;2022-08-23T15:30:06;2.83;;;2.20;;
9473;SDS011;8865;47.636;7.692;2022-08-23T15:32:35;3.35;;;2.20;;
9473;SDS011;8865;47.636;7.692;2022-08-23T15:35:01;3.75;;;1.70;;
9473;SDS011;8865;47.636;7.692;2022-08-23T15:37:27;2.38;;;1.90;;
9473;SDS011;8865;47.636;7.692;2022-08-23T15:39:53;5.20;;;2.53;;
9473;SDS011;8865;47.636;7.692;2022-08-23T15:42:21;1.65;;;1.40;;
9473;SDS011;8865;47.636;7.692;2022-08-23T15:44:53;3.55;;;1.67;;
9473;SDS011;8865;47.636;7.692;2022-08-23T15:50:20;2.03;;;1.73;;
9473;SDS011;8865;47.636;7.692;2022-08-23T15:52:49;4.10;;;1.58;;
9473;SDS011;8865;47.636;7.692;2022-08-23T15:55:33;3.13;;;2.63;;
9473;SDS011;8865;47.636;7.692;2022-08-23T15:57:59;5.47;;;3.67;;
9473;SDS011;8865;47.636;7.692;2022-08-23T16:00:31;6.47;;;2.53;;
9473;SDS011;8865;47.636;7.692;2022-08-23T16:03:00;2.15;;;1.60;;
9473;SDS011;8865;47.636;7.692;2022-08-23T16:05:36;3.08;;;2.17;;
9473;SDS011;8865;47.636;7.692;2022-08-23T16:08:04;2.38;;;2.17;;
9473;SDS011;8865;47.636;7.692;2022-08-23T16:10:35;4.05;;;1.60;;
9473;SDS011;8865;47.636;7.692;2022-08-23T16:13:03;3.08;;;1.90;;
9473;SDS011;8865;47.636;7.692;2022-08-23T16:15:32;3.05;;;1.88;;
9473;SDS011;8865;47.636;7.692;2022-08-23T16:18:07;2.38;;;1.50;;
9473;SDS011;8865;47.636;7.692;2022-08-23T16:20:41;1.77;;;1.67;;
9473;SDS011;8865;47.636;7.692;2022-08-23T16:23:12;1.88;;;1.50;;
9473;SDS011;8865;47.636;7.692;2022-08-23T16:25:38;1.67;;;1.50;;
9473;SDS011;8865;47.636;7.692;2022-08-23T16:28:05;1.75;;;1.58;;
9473;SDS011;8865;47.636;7.692;2022-08-23T16:30:35;2.45;;;1.65;;
9473;SDS011;8865;47.636;7.692;2022-08-23T16:33:03;2.97;;;1.40;;
9473;SDS011;8865;47.636;7.692;2022-08-23T16:35:35;2.00;;;1.45;;
9473;SDS011;8865;47.636;7.692;2022-08-23T16:38:03;4.30;;;1.65;;
9473;SDS011;8865;47.636;7.692;2022-08-23T16:40:35;5.57;;;1.80;;
9473;SDS011;8865;47.636;7.692;2022-08-23T16:43:06;2.13;;;1.60;;
9473;SDS011;8865;47.636;7.692;2022-08-23T16:45:38;2.50;;;1.55;;
9473;SDS011;8865;47.636;7.692;2022-08-23T16:48:20;3.10;;;1.80;;
9473;SDS011;8865;47.636;7.692;2022-08-23T16:50:46;1.63;;;1.50;;
9473;SDS011;8865;47.636;7.692;2022-08-23T16:53:23;2.15;;;1.50;;
9473;SDS011;8865;47.636;7.692;2022-08-23T16:55:57;2.42;;;1.63;;
9473;SDS011;8865;47.636;7.692;2022-08-23T16:58:37;2.60;;;1.48;;
9473;SDS011;8865;47.636;7.692;2022-08-23T17:01:10;4.00;;;1.83;;
9473;SDS011;8865;47.636;7.692;2022-08-23T17:03:40;2.75;;;1.42;;
9473;SDS011;8865;47.636;7.692;2022-08-23T17:06:13;2.33;;;1.50;;
9473;SDS011;8865;47.636;7.692;2022-08-23T17:08:54;2.10;;;1.90;;
9473;SDS011;8865;47.636;7.692;2022-08-23T17:11:29;3.45;;;1.83;;
9473;SDS011;8865;47.636;7.692;2022-08-23T17:14:05;2.97;;;1.88;;
9473;SDS011;8865;47.636;7.692;2022-08-23T17:16:39;4.10;;;1.85;;
9473;SDS011;8865;47.636;7.692;2022-08-23T17:19:09;3.50;;;2.03;;
9473;SDS011;8865;47.636;7.692;2022-08-23T17:21:41;3.13;;;1.92;;
9473;SDS011;8865;47.636;7.692;2022-08-23T17:24:16;3.95;;;2.05;;
9473;SDS011;8865;47.636;7.692;2022-08-23T17:26:45;2.70;;;1.73;;
9473;SDS011;8865;47.636;7.692;2022-08-23T17:29:22;15.50;;;13.57;;
9473;SDS011;8865;47.636;7.692;2022-08-23T17:32:11;4.90;;;4.40;;